Time;durP1;ratioP1;P1;durP2;ratioP2;P2;SDS_P1;SDS_P2;PMS_P1;PMS_P2;Temp;Humidity;BMP_temperature;BMP_pressure;BME280_temperature;BME280_humidity;BME280_pressure;Samples;Min_cycle;Max_cycle;Signal;HPM_P1;HPM_P2
2023/05/01 05:24:41;;;;;;;2.63;2.53;;;9.80;99.90;;;;;;6199396;22;20727;-71
2023/05/01 05:27:08;;;;;;;1.80;1.80;;;9.80;99.90;;;;;;6215917;23;20495;-70
2023/05/01 05:29:35;;;;;;;2.83;2.72;;;9.90;99.90;;;;;;6215949;23;20180;-70
2023/05/01 05:32:02;;;;;;;2.88;2.67;;;10.00;99.90;;;;;;6215505;23;20511;-70
2023/05/01 05:34:29;;;;;;;2.60;2.53;;;10.00;99.90;;;;;;6215905;23;20288;-70
2023/05/01 05:36:56;;;;;;;2.80;2.70;;;10.10;99.90;;;;;;6215963;22;20207;-67
2023/05/01 05:39:23;;;;;;;2.80;2.70;;;10.20;99.90;;;;;;6215854;23;20218;-66
2023/05/01 05:41:52;;;;;;;2.50;2.40;;;10.30;99.90;;;;;;6215822;23;20172;-67
2023/05/01 05:44:19;;;;;;;2.10;2.10;;;10.30;99.90;;;;;;6215761;23;20219;-67
2023/05/01 05:46:46;;;;;;;2.28;2.28;;;10.30;99.90;;;;;;6215694;23;20193;-67
2023/05/01 05:49:13;;;;;;;2.85;2.75;;;10.40;99.90;;;;;;6215793;23;20183;-67
2023/05/01 05:51:39;;;;;;;2.65;2.55;;;10.40;99.90;;;;;;6215793;23;20279;-67
2023/05/01 05:54:06;;;;;;;2.20;2.20;;;10.50;99.90;;;;;;6215365;23;20508;-67
2023/05/01 05:56:33;;;;;;;2.30;2.30;;;10.60;99.90;;;;;;6215300;23;20699;-67
2023/05/01 05:59:03;;;;;;;2.67;2.58;;;10.70;99.90;;;;;;6215734;23;20173;-67
2023/05/01 06:01:30;;;;;;;2.80;2.70;;;10.80;99.90;;;;;;6216718;23;20180;-67
2023/05/01 06:03:56;;;;;;;2.67;2.47;;;10.90;99.90;;;;;;6215708;23;20173;-68
2023/05/01 06:06:23;;;;;;;2.90;2.70;;;11.00;99.90;;;;;;6215584;23;20181;-67
2023/05/01 06:08:50;;;;;;;2.55;2.42;;;11.00;99.90;;;;;;6215605;23;20180;-67
2023/05/01 06:11:17;;;;;;;3.13;3.03;;;11.00;99.90;;;;;;6215481;23;20189;-67
2023/05/01 06:13:44;;;;;;;2.95;2.85;;;11.00;99.90;;;;;;6216283;23;20216;-66
2023/05/01 06:16:12;;;;;;;2.25;2.25;;;11.00;99.90;;;;;;6217459;23;20176;-67
2023/05/01 06:18:38;;;;;;;2.80;2.70;;;11.00;99.90;;;;;;6217451;23;20193;-67
2023/05/01 06:21:05;;;;;;;2.45;2.45;;;11.00;99.90;;;;;;6217175;23;20533;-67
2023/05/01 06:23:33;;;;;;;3.00;2.90;;;11.00;99.90;;;;;;6217536;23;20172;-67
2023/05/01 06:26:00;;;;;;;3.53;3.30;;;11.10;99.90;;;;;;6217959;23;20259;-65
2023/05/01 06:28:26;;;;;;;3.80;3.50;;;11.00;99.90;;;;;;6217401;23;20201;-66
2023/05/01 06:30:53;;;;;;;4.25;3.95;;;11.00;99.90;;;;;;6217202;23;20180;-66
2023/05/01 06:33:21;;;;;;;4.63;4.22;;;11.00;99.90;;;;;;6217013;23;20662;-66
2023/05/01 06:35:48;;;;;;;3.60;3.40;;;11.10;99.90;;;;;;6217410;23;20198;-66
2023/05/01 06:38:15;;;;;;;3.78;3.58;;;11.20;99.90;;;;;;6216941;23;20204;-66
2023/05/01 06:40:42;;;;;;;4.00;3.67;;;11.30;99.90;;;;;;6217471;23;20554;-66
2023/05/01 06:43:08;;;;;;;3.10;3.00;;;11.50;99.90;;;;;;6217683;23;20173;-66
2023/05/01 06:45:38;;;;;;;3.20;3.10;;;11.70;99.90;;;;;;6217244;23;20177;-65
2023/05/01 06:48:05;;;;;;;3.20;3.10;;;12.00;99.90;;;;;;6217552;23;20503;-66
2023/05/01 06:50:33;;;;;;;2.80;2.70;;;12.30;99.90;;;;;;6217681;23;20172;-66
2023/05/01 06:53:01;;;;;;;3.25;3.05;;;12.50;99.90;;;;;;6217319;23;20219;-66
2023/05/01 06:55:30;;;;;;;2.70;2.60;;;12.50;99.90;;;;;;6217092;23;20184;-66
2023/05/01 06:57:56;;;;;;;2.75;2.65;;;12.50;99.90;;;;;;6217161;23;20526;-66
2023/05/01 07:00:23;;;;;;;2.85;2.75;;;12.50;99.90;;;;;;6217456;23;20176;-66
2023/05/01 07:02:50;;;;;;;2.78;2.67;;;12.60;99.90;;;;;;6217362;23;20503;-66
2023/05/01 07:05:17;;;;;;;3.28;3.10;;;12.70;99.90;;;;;;6217476;23;20180;-66
2023/05/01 07:07:45;;;;;;;2.83;2.67;;;13.00;99.90;;;;;;6217254;23;20228;-66
2023/05/01 07:10:12;;;;;;;2.92;2.72;;;13.30;99.90;;;;;;6217318;23;20177;-66
2023/05/01 07:12:38;;;;;;;2.45;2.25;;;13.70;99.90;;;;;;6217294;23;20193;-66
2023/05/01 07:15:06;;;;;;;2.45;2.35;;;14.10;99.90;;;;;;6217380;23;20255;-66
2023/05/01 07:17:33;;;;;;;2.88;2.78;;;14.60;99.90;;;;;;6217473;23;20228;-66
2023/05/01 07:20:00;;;;;;;2.70;2.50;;;15.00;99.90;;;;;;6217095;23;20173;-66
2023/05/01 07:22:27;;;;;;;2.58;2.45;;;15.40;99.90;;;;;;6217180;23;20173;-66
2023/05/01 07:24:55;;;;;;;2.40;2.30;;;15.90;99.90;;;;;;6216347;23;20181;-66
2023/05/01 07:27:23;;;;;;;2.70;2.60;;;15.80;99.90;;;;;;6217950;23;20200;-66
2023/05/01 07:29:50;;;;;;;2.45;2.35;;;15.70;99.90;;;;;;6217155;23;20172;-66
2023/05/01 07:32:17;;;;;;;2.47;2.38;;;15.80;99.90;;;;;;6216729;23;20679;-67
2023/05/01 07:34:44;;;;;;;2.22;2.13;;;16.00;99.90;;;;;;6217375;23;20184;-66
2023/05/01 07:37:11;;;;;;;2.50;2.40;;;16.10;99.90;;;;;;6216487;23;20700;-66
2023/05/01 07:39:38;;;;;;;2.47;2.38;;;16.10;99.90;;;;;;6216552;23;20542;-67
2023/05/01 07:42:06;;;;;;;2.35;2.17;;;16.10;99.90;;;;;;6217244;23;20524;-66
2023/05/01 07:44:33;;;;;;;3.05;2.90;;;16.10;99.90;;;;;;6217156;23;20172;-66
2023/05/01 07:47:03;;;;;;;3.35;3.05;;;15.80;99.90;;;;;;6216508;23;20204;-66
2023/05/01 07:49:34;;;;;;;3.22;3.03;;;15.60;99.90;;;;;;6216832;23;20244;-66
2023/05/01 07:52:01;;;;;;;2.67;2.55;;;15.50;99.90;;;;;;6217023;23;20176;-66
2023/05/01 07:54:28;;;;;;;3.05;2.95;;;15.60;99.90;;;;;;6216666;23;20181;-66
2023/05/01 07:56:55;;;;;;;2.55;2.42;;;15.50;99.90;;;;;;6216592;23;20198;-66
2023/05/01 07:59:23;;;;;;;2.78;2.58;;;15.70;99.90;;;;;;6216498;23;20314;-66
2023/05/01 08:01:49;;;;;;;2.50;2.40;;;15.90;99.90;;;;;;6216561;23;20169;-66
2023/05/01 08:04:17;;;;;;;2.10;2.10;;;16.20;99.90;;;;;;6216469;23;20180;-66
2023/05/01 08:06:44;;;;;;;2.00;2.00;;;16.50;99.90;;;;;;6216403;23;20196;-66
2023/05/01 08:09:11;;;;;;;2.40;2.30;;;16.70;99.90;;;;;;6216029;23;20708;-66
2023/05/01 08:11:37;;;;;;;2.30;2.20;;;16.80;99.90;;;;;;6215926;23;20633;-66
2023/05/01 08:14:04;;;;;;;2.35;2.25;;;16.70;99.90;;;;;;6216393;23;20519;-66
2023/05/01 08:16:33;;;;;;;2.28;2.20;;;16.60;99.90;;;;;;6216366;23;20179;-66
2023/05/01 08:19:00;;;;;;;2.30;2.20;;;16.50;99.90;;;;;;6217137;23;20172;-66
2023/05/01 08:21:27;;;;;;;2.25;2.15;;;16.40;99.90;;;;;;6216187;23;20172;-66
2023/05/01 08:23:55;;;;;;;2.20;2.20;;;16.30;99.90;;;;;;6216404;23;20196;-66
2023/05/01 08:26:22;;;;;;;2.75;2.55;;;16.00;99.90;;;;;;6216479;23;20200;-66
2023/05/01 08:28:49;;;;;;;2.55;2.45;;;15.70;99.90;;;;;;6216424;23;20173;-65
2023/05/01 08:31:18;;;;;;;2.08;2.03;;;15.60;99.90;;;;;;6216579;23;20173;-65
2023/05/01 08:33:46;;;;;;;2.42;2.33;;;15.60;99.90;;;;;;6215761;23;20243;-65
2023/05/01 08:36:12;;;;;;;2.58;2.47;;;15.50;99.90;;;;;;6215957;23;20181;-65
2023/05/01 08:38:39;;;;;;;2.50;2.40;;;15.40;99.90;;;;;;6215640;23;20204;-65
2023/05/01 08:41:06;;;;;;;2.95;2.80;;;15.10;99.90;;;;;;6216219;23;20173;-65
2023/05/01 08:43:33;;;;;;;2.47;2.38;;;15.00;99.90;;;;;;6216268;23;20169;-65
2023/05/01 08:46:01;;;;;;;3.00;2.90;;;14.80;99.90;;;;;;6216241;23;20178;-65
2023/05/01 08:48:29;;;;;;;2.88;2.78;;;14.50;99.90;;;;;;6216212;23;20231;-65
2023/05/01 08:50:59;;;;;;;3.72;3.53;;;14.30;99.90;;;;;;6216289;23;20177;-66
2023/05/01 08:53:26;;;;;;;4.40;3.58;;;14.10;99.90;;;;;;6215981;23;20193;-66
2023/05/01 08:55:55;;;;;;;3.55;3.35;;;13.80;99.90;;;;;;6216204;23;20184;-66
2023/05/01 08:58:25;;;;;;;4.50;4.10;;;13.70;99.90;;;;;;6216068;23;20200;-66
2023/05/01 09:00:55;;;;;;;3.78;3.58;;;13.60;99.90;;;;;;6216156;23;20204;-66
2023/05/01 09:03:22;;;;;;;3.83;3.53;;;13.40;99.90;;;;;;6216220;23;20595;-67
2023/05/01 09:05:49;;;;;;;3.90;3.70;;;13.30;99.90;;;;;;6216130;23;20172;-67
2023/05/01 09:08:17;;;;;;;3.78;3.55;;;13.30;99.90;;;;;;6216167;23;20192;-67
2023/05/01 09:10:48;;;;;;;3.05;2.95;;;13.20;99.90;;;;;;6216192;23;20180;-67
2023/05/01 09:13:14;;;;;;;4.07;3.88;;;13.10;99.90;;;;;;6216044;23;20267;-67
2023/05/01 09:15:41;;;;;;;3.88;3.63;;;13.00;99.90;;;;;;6216163;23;20180;-67
2023/05/01 09:18:09;;;;;;;5.60;5.03;;;12.90;99.90;;;;;;6215963;23;20199;-67
2023/05/01 09:20:37;;;;;;;5.18;4.78;;;12.90;99.90;;;;;;6216212;23;20181;-67
2023/05/01 09:23:04;;;;;;;4.90;4.50;;;12.70;99.90;;;;;;6216144;23;20247;-67
2023/05/01 09:25:32;;;;;;;4.25;4.03;;;12.70;99.90;;;;;;6215726;23;20506;-67
2023/05/01 09:27:58;;;;;;;4.47;4.20;;;12.60;99.90;;;;;;6216059;23;20192;-67
2023/05/01 09:30:33;;;;;;;4.40;4.13;;;12.40;99.90;;;;;;6216159;23;20165;-67
2023/05/01 09:33:07;;;;;;;4.00;3.80;;;12.30;99.90;;;;;;6215890;23;20198;-67
2023/05/01 09:35:48;;;;;;;3.95;3.75;;;12.30;99.90;;;;;;6216196;23;20172;-67
2023/05/01 09:38:18;;;;;;;3.80;3.60;;;12.40;99.90;;;;;;6215855;23;20208;-68
2023/05/01 09:40:46;;;;;;;3.63;3.40;;;12.50;99.90;;;;;;6216313;23;20196;-68
2023/05/01 09:43:13;;;;;;;3.33;3.13;;;12.60;99.90;;;;;;6216370;23;20172;-67
2023/05/01 09:45:42;;;;;;;3.22;3.13;;;12.80;99.90;;;;;;6216652;23;20177;-66
2023/05/01 09:48:10;;;;;;;3.22;3.03;;;12.90;99.90;;;;;;6216137;23;20199;-66
2023/05/01 09:50:38;;;;;;;2.63;2.53;;;13.20;99.90;;;;;;6218072;23;20177;-66
2023/05/01 09:53:05;;;;;;;3.00;2.75;;;13.20;99.90;;;;;;6217852;23;20189;-66
2023/05/01 09:55:32;;;;;;;2.92;2.72;;;13.40;99.90;;;;;;6217926;23;20259;-66
2023/05/01 09:58:00;;;;;;;2.72;2.63;;;13.60;99.90;;;;;;6218092;23;20192;-67
2023/05/01 10:00:28;;;;;;;2.60;2.45;;;13.90;99.90;;;;;;6217725;23;20173;-66
2023/05/01 10:02:55;;;;;;;2.50;2.40;;;14.10;99.90;;;;;;6217613;23;20181;-66
2023/05/01 10:05:23;;;;;;;2.45;2.35;;;14.30;99.90;;;;;;6217688;23;20209;-66
2023/05/01 10:07:58;;;;;;;2.58;2.47;;;14.50;99.90;;;;;;6217678;23;20196;-66
2023/05/01 10:10:25;;;;;;;2.72;2.63;;;14.50;99.90;;;;;;6217840;23;20195;-66
2023/05/01 10:12:52;;;;;;;2.03;2.03;;;14.50;99.90;;;;;;6217355;23;20195;-66
2023/05/01 10:15:20;;;;;;;2.10;2.10;;;14.60;99.90;;;;;;6217714;23;20180;-66
2023/05/01 10:17:51;;;;;;;2.20;2.10;;;14.80;99.90;;;;;;6217414;23;20193;-66
2023/05/01 10:20:18;;;;;;;2.42;2.33;;;14.90;99.90;;;;;;6217776;23;20176;-65
2023/05/01 10:22:45;;;;;;;2.90;2.78;;;14.80;99.90;;;;;;6217525;23;20168;-66
2023/05/01 10:25:12;;;;;;;2.17;2.08;;;14.80;99.90;;;;;;6217596;23;20179;-66
2023/05/01 10:27:40;;;;;;;2.65;2.55;;;14.80;99.90;;;;;;6217425;23;20243;-67
2023/05/01 10:30:08;;;;;;;1.95;1.95;;;14.90;99.90;;;;;;6217466;23;20176;-66
2023/05/01 10:32:37;;;;;;;2.45;2.35;;;15.00;99.90;;;;;;6218237;23;20204;-65
2023/05/01 10:35:10;;;;;;;2.47;2.28;;;14.90;99.90;;;;;;6217522;23;20506;-64
2023/05/01 10:37:44;;;;;;;2.00;2.00;;;15.00;99.90;;;;;;6216820;23;20590;-66
2023/05/01 10:40:45;;;;;;;2.22;2.20;;;15.20;99.90;;;;;;6217506;23;20161;-66
2023/05/01 10:43:24;;;;;;;2.20;2.13;;;15.10;99.90;;;;;;6217069;23;20598;-64
2023/05/01 10:45:52;;;;;;;2.22;2.13;;;15.10;99.90;;;;;;6217029;23;20239;-64
2023/05/01 10:48:55;;;;;;;1.70;1.60;;;15.10;99.90;;;;;;6216985;23;20674;-65
2023/05/01 10:51:22;;;;;;;1.80;1.70;;;15.40;99.90;;;;;;6217003;23;20626;-65
2023/05/01 10:54:10;;;;;;;1.60;1.60;;;15.50;99.90;;;;;;6221301;23;20684;-65
2023/05/01 10:56:41;;;;;;;1.85;1.75;;;15.60;99.90;;;;;;6219063;23;20183;-65
2023/05/01 10:59:08;;;;;;;1.70;1.70;;;15.60;99.90;;;;;;6217413;23;20184;-65
2023/05/01 11:01:37;;;;;;;1.70;1.70;;;15.80;99.90;;;;;;6219181;23;20177;-66
2023/05/01 11:04:07;;;;;;;1.50;1.50;;;16.00;99.90;;;;;;6218190;23;20692;-66
2023/05/01 11:06:36;;;;;;;1.50;1.50;;;16.30;99.90;;;;;;6216806;23;20161;-66
2023/05/01 11:09:36;;;;;;;1.20;1.20;;;16.50;99.90;;;;;;6217387;23;20245;-66
2023/05/01 11:12:03;;;;;;;1.30;1.25;;;16.80;99.90;;;;;;6217423;23;20165;-68
2023/05/01 11:15:03;;;;;;;1.23;1.23;;;17.10;99.90;;;;;;6217749;23;20212;-67
2023/05/01 11:17:46;;;;;;;1.05;1.05;;;17.20;99.90;;;;;;6216924;23;20192;-67
2023/05/01 11:20:49;;;;;;;0.75;0.75;;;17.60;99.90;;;;;;6217174;23;20234;-67
2023/05/01 11:23:20;;;;;;;1.58;0.70;;;17.60;99.90;;;;;;6217133;23;20183;-68
2023/05/01 11:25:51;;;;;;;0.75;0.75;;;17.80;99.90;;;;;;6217417;23;20173;-68
2023/05/01 11:28:21;;;;;;;0.65;0.65;;;17.90;99.90;;;;;;6217040;23;20215;-68
2023/05/01 11:30:48;;;;;;;0.52;0.52;;;17.80;99.90;;;;;;6218047;23;20176;-68
2023/05/01 11:33:24;;;;;;;0.70;0.70;;;17.90;99.90;;;;;;6216933;23;20215;-68
2023/05/01 11:35:59;;;;;;;0.60;0.60;;;17.90;99.90;;;;;;6216504;23;20660;-68
2023/05/01 11:38:26;;;;;;;0.52;0.52;;;17.90;99.90;;;;;;6217413;23;20204;-68
2023/05/01 11:40:55;;;;;;;0.50;0.50;;;17.90;99.90;;;;;;6217036;23;20259;-66
2023/05/01 11:43:22;;;;;;;0.75;0.65;;;17.90;99.90;;;;;;6216976;23;20168;-66
2023/05/01 11:45:53;;;;;;;0.50;0.50;;;17.80;99.90;;;;;;6216809;23;20156;-67
2023/05/01 11:48:21;;;;;;;0.50;0.50;;;17.70;99.90;;;;;;6216577;23;20657;-66
2023/05/01 11:50:48;;;;;;;0.50;0.50;;;17.80;99.90;;;;;;6216842;23;20172;-66
2023/05/01 11:53:16;;;;;;;0.52;0.52;;;18.00;99.90;;;;;;6216756;23;20196;-66
2023/05/01 11:55:43;;;;;;;0.50;0.50;;;18.00;99.90;;;;;;6216717;23;20535;-66
2023/05/01 11:58:11;;;;;;;0.60;0.60;;;18.00;99.90;;;;;;6217838;23;20196;-66
2023/05/01 12:00:39;;;;;;;0.57;0.57;;;18.00;99.90;;;;;;6216879;23;20176;-66
2023/05/01 12:03:07;;;;;;;0.50;0.50;;;17.90;99.90;;;;;;6216381;23;20653;-66
2023/05/01 12:05:36;;;;;;;0.55;0.55;;;17.90;99.90;;;;;;6216827;23;20167;-66
2023/05/01 12:08:08;;;;;;;0.40;0.40;;;17.80;99.90;;;;;;6216323;23;20665;-66
2023/05/01 12:10:37;;;;;;;0.80;0.80;;;17.90;99.90;;;;;;6216410;23;20176;-66
2023/05/01 12:13:04;;;;;;;0.50;0.50;;;17.90;99.90;;;;;;6216054;23;20513;-66
2023/05/01 12:15:33;;;;;;;0.80;0.80;;;17.90;99.90;;;;;;6216203;23;20157;-66
2023/05/01 12:18:01;;;;;;;0.82;0.82;;;17.80;99.90;;;;;;6216552;23;20196;-66
2023/05/01 12:20:40;;;;;;;0.68;0.68;;;17.70;98.90;;;;;;6216791;23;20194;-66
2023/05/01 12:23:08;;;;;;;0.57;0.57;;;17.60;99.90;;;;;;6216927;23;20164;-66
2023/05/01 12:25:38;;;;;;;0.70;0.70;;;17.50;99.90;;;;;;6216850;23;20176;-66
2023/05/01 12:28:09;;;;;;;0.80;0.80;;;17.50;99.90;;;;;;6216530;23;20223;-66
2023/05/01 12:30:36;;;;;;;0.80;0.80;;;17.40;99.90;;;;;;6216609;23;20161;-66
2023/05/01 12:33:10;;;;;;;0.75;0.75;;;17.40;99.90;;;;;;6216409;23;20184;-66
2023/05/01 12:35:37;;;;;;;0.85;0.85;;;17.60;99.90;;;;;;6216123;23;20502;-67
2023/05/01 12:38:11;;;;;;;0.70;0.70;;;17.80;99.90;;;;;;6216076;23;20210;-67
2023/05/01 12:40:39;;;;;;;0.73;0.73;;;18.00;99.90;;;;;;6216404;23;20159;-67
2023/05/01 12:43:06;;;;;;;0.80;0.80;;;18.10;99.90;;;;;;6216209;23;20183;-67
2023/05/01 12:45:40;;;;;;;0.70;0.70;;;18.20;99.30;;;;;;6216323;23;20172;-67
2023/05/01 12:48:11;;;;;;;0.60;0.60;;;18.30;97.20;;;;;;6216176;23;20200;-67
2023/05/01 12:50:39;;;;;;;0.68;0.68;;;18.40;95.10;;;;;;6215965;23;20609;-67
2023/05/01 12:53:08;;;;;;;0.70;0.70;;;18.60;92.10;;;;;;6215895;23;20260;-67
2023/05/01 12:55:45;;;;;;;0.60;0.60;;;18.70;88.20;;;;;;6216341;23;20172;-67
2023/05/01 12:58:12;;;;;;;0.60;0.60;;;18.80;86.90;;;;;;6215943;23;20583;-67
2023/05/01 13:00:47;;;;;;;0.57;0.57;;;19.00;81.30;;;;;;6215959;23;20605;-67
2023/05/01 13:03:15;;;;;;;0.88;0.60;;;19.20;72.50;;;;;;6216301;23;20242;-67
2023/05/01 13:05:53;;;;;;;0.55;0.55;;;19.20;72.90;;;;;;6216200;23;20282;-67
2023/05/01 13:08:31;;;;;;;0.70;0.70;;;19.30;68.70;;;;;;6216088;23;20195;-67
2023/05/01 13:11:01;;;;;;;0.47;0.47;;;19.40;68.90;;;;;;6216171;23;20211;-67
2023/05/01 13:13:29;;;;;;;0.57;0.57;;;19.50;65.70;;;;;;6216167;23;20187;-67
2023/05/01 13:16:07;;;;;;;0.57;0.57;;;19.60;64.50;;;;;;6216205;23;20172;-67
2023/05/01 13:18:42;;;;;;;0.60;0.60;;;19.50;63.00;;;;;;6216168;23;20270;-65
2023/05/01 13:21:10;;;;;;;0.57;0.57;;;19.50;66.10;;;;;;6216301;23;20246;-68
2023/05/01 13:23:37;;;;;;;0.60;0.60;;;19.40;62.80;;;;;;6217725;23;20156;-68
2023/05/01 13:26:07;;;;;;;0.60;0.60;;;19.30;65.70;;;;;;6218182;23;20168;-67
2023/05/01 13:28:35;;;;;;;0.63;0.55;;;19.10;67.60;;;;;;6218077;23;20192;-67
2023/05/01 13:31:02;;;;;;;0.50;0.50;;;19.00;71.90;;;;;;6218000;23;20637;-67
2023/05/01 13:33:31;;;;;;;0.70;0.70;;;18.80;74.40;;;;;;6218191;23;20179;-67
2023/05/01 13:35:58;;;;;;;0.70;0.70;;;18.60;75.70;;;;;;6217951;23;20176;-68
2023/05/01 13:38:25;;;;;;;0.60;0.60;;;18.20;82.20;;;;;;6217508;23;20192;-67
2023/05/01 13:40:52;;;;;;;0.57;0.57;;;17.80;90.30;;;;;;6218029;23;20183;-67
2023/05/01 13:43:22;;;;;;;0.70;0.70;;;17.40;96.60;;;;;;6217771;23;20183;-67
2023/05/01 13:45:49;;;;;;;0.50;0.50;;;17.10;99.90;;;;;;6218865;23;20487;-67
2023/05/01 13:48:18;;;;;;;0.55;0.55;;;16.80;99.90;;;;;;6218151;23;20196;-67
2023/05/01 13:50:45;;;;;;;0.50;0.50;;;16.60;99.90;;;;;;6218190;23;20181;-66
2023/05/01 13:53:11;;;;;;;0.60;0.60;;;16.50;99.90;;;;;;6218153;23;20205;-67
2023/05/01 13:55:40;;;;;;;0.50;0.50;;;16.40;99.90;;;;;;6218212;23;20196;-68
2023/05/01 13:58:07;;;;;;;0.75;0.75;;;16.40;99.90;;;;;;6217929;23;20196;-68
2023/05/01 14:00:36;;;;;;;0.77;0.77;;;16.30;99.90;;;;;;6218020;23;20234;-68
2023/05/01 14:03:02;;;;;;;1.33;1.33;;;16.20;99.90;;;;;;6217498;23;20695;-68
2023/05/01 14:05:29;;;;;;;1.10;1.10;;;16.20;99.90;;;;;;6217923;23;20153;-68
2023/05/01 14:07:57;;;;;;;1.23;1.17;;;16.40;99.90;;;;;;6217896;23;20196;-67
2023/05/01 14:10:27;;;;;;;1.00;1.00;;;16.50;99.90;;;;;;6217812;23;20173;-67
2023/05/01 14:12:55;;;;;;;0.90;0.90;;;16.60;99.90;;;;;;6217851;23;20157;-67
2023/05/01 14:15:23;;;;;;;0.90;0.90;;;16.90;99.90;;;;;;6217908;23;20199;-67
2023/05/01 14:17:51;;;;;;;0.80;0.80;;;17.10;99.90;;;;;;6217640;23;20192;-68
2023/05/01 14:20:18;;;;;;;1.17;1.17;;;17.10;99.90;;;;;;6217725;23;20177;-68
2023/05/01 14:22:50;;;;;;;0.93;0.93;;;17.00;99.90;;;;;;6217733;23;20490;-68
2023/05/01 14:25:23;;;;;;;1.33;1.23;;;17.10;99.90;;;;;;6217692;23;20184;-68
2023/05/01 14:27:50;;;;;;;1.13;1.13;;;17.30;99.90;;;;;;6217490;23;20192;-68
2023/05/01 14:30:25;;;;;;;0.90;0.90;;;17.40;99.90;;;;;;6217257;23;20180;-67
2023/05/01 14:32:54;;;;;;;1.00;1.00;;;17.40;99.90;;;;;;6217451;23;20187;-67
2023/05/01 14:35:23;;;;;;;3.67;0.82;;;17.50;98.20;;;;;;6217195;23;20230;-67
2023/05/01 14:37:50;;;;;;;0.77;0.77;;;17.40;88.00;;;;;;6217071;23;20200;-67
2023/05/01 14:40:26;;;;;;;0.57;0.57;;;17.40;90.20;;;;;;6217529;23;20180;-67
2023/05/01 14:42:54;;;;;;;0.80;0.80;;;17.30;87.90;;;;;;6217517;23;20160;-67
2023/05/01 14:45:21;;;;;;;0.68;0.68;;;17.50;86.30;;;;;;6217417;23;20168;-67
2023/05/01 14:47:48;;;;;;;0.70;0.70;;;17.60;80.60;;;;;;6217191;23;20197;-67
2023/05/01 14:50:21;;;;;;;0.60;0.60;;;17.60;84.60;;;;;;6216894;23;20172;-67
2023/05/01 14:52:52;;;;;;;1.00;0.70;;;17.70;82.50;;;;;;6216864;23;20167;-67
2023/05/01 14:55:25;;;;;;;0.65;0.65;;;17.70;81.30;;;;;;6216906;23;20537;-67
2023/05/01 14:57:51;;;;;;;0.60;0.60;;;17.80;80.40;;;;;;6216838;23;20196;-67
2023/05/01 15:00:18;;;;;;;0.60;0.60;;;17.80;79.90;;;;;;6217415;23;20177;-69
2023/05/01 15:02:45;;;;;;;0.60;0.60;;;17.60;85.30;;;;;;6216998;23;20617;-68
2023/05/01 15:05:13;;;;;;;0.60;0.60;;;17.30;80.80;;;;;;6217265;23;20191;-67
2023/05/01 15:07:41;;;;;;;1.13;1.13;;;16.80;87.40;;;;;;6217219;23;20196;-66
2023/05/01 15:10:08;;;;;;;1.10;1.10;;;16.00;94.70;;;;;;6217377;23;20215;-67
2023/05/01 15:12:35;;;;;;;1.67;1.30;;;15.60;99.90;;;;;;6217177;23;20176;-67
2023/05/01 15:15:02;;;;;;;2.03;1.30;;;15.30;99.90;;;;;;6217209;23;20576;-66
2023/05/01 15:17:29;;;;;;;1.15;1.15;;;15.10;99.90;;;;;;6217384;23;20197;-67
2023/05/01 15:19:56;;;;;;;1.92;1.15;;;14.90;99.90;;;;;;6216966;23;20506;-66
2023/05/01 15:22:22;;;;;;;1.33;1.33;;;14.70;99.90;;;;;;6217299;23;20157;-67
2023/05/01 15:24:50;;;;;;;1.42;1.42;;;14.70;99.90;;;;;;6217045;23;20168;-67
2023/05/01 15:27:17;;;;;;;1.20;1.20;;;14.90;99.90;;;;;;6217285;23;20578;-67
2023/05/01 15:29:44;;;;;;;1.35;1.25;;;15.10;99.90;;;;;;6216811;23;20638;-67
2023/05/01 15:32:10;;;;;;;1.05;1.05;;;15.20;99.90;;;;;;6217022;23;20177;-67
2023/05/01 15:34:37;;;;;;;1.20;1.20;;;15.30;99.90;;;;;;6217020;23;20208;-67
2023/05/01 15:37:04;;;;;;;1.17;1.17;;;15.40;99.90;;;;;;6216921;23;20204;-67
2023/05/01 15:39:32;;;;;;;1.00;1.00;;;15.60;99.90;;;;;;6217014;23;20177;-67
2023/05/01 15:42:00;;;;;;;1.20;1.20;;;15.80;99.90;;;;;;6216832;23;20184;-66
2023/05/01 15:44:27;;;;;;;1.10;1.10;;;15.90;99.90;;;;;;6216879;23;20202;-66
2023/05/01 15:46:54;;;;;;;0.90;0.90;;;16.10;99.90;;;;;;6215864;23;20520;-66
2023/05/01 15:49:20;;;;;;;0.93;0.93;;;16.20;98.20;;;;;;6217040;23;20173;-66
2023/05/01 15:51:47;;;;;;;0.98;0.98;;;16.40;98.30;;;;;;6216966;23;20217;-66
2023/05/01 15:54:14;;;;;;;1.00;1.00;;;16.60;95.00;;;;;;6216219;23;20505;-66
2023/05/01 15:56:41;;;;;;;0.85;0.85;;;16.60;94.60;;;;;;6216325;23;20501;-66
2023/05/01 15:59:09;;;;;;;1.08;1.08;;;16.60;87.10;;;;;;6216731;23;20195;-66
2023/05/01 16:01:35;;;;;;;1.20;1.10;;;16.40;89.40;;;;;;6216625;23;20177;-66
2023/05/01 16:04:03;;;;;;;1.20;1.20;;;16.40;91.80;;;;;;6216630;23;20176;-67
2023/05/01 16:06:30;;;;;;;0.98;0.98;;;16.20;86.70;;;;;;6216233;23;20638;-68
2023/05/01 16:08:58;;;;;;;1.00;1.00;;;16.00;87.50;;;;;;6216673;23;20180;-67
2023/05/01 16:11:24;;;;;;;1.00;1.00;;;15.70;90.60;;;;;;6216552;23;20509;-67
2023/05/01 16:13:53;;;;;;;1.13;1.13;;;15.60;90.70;;;;;;6216223;23;20176;-66
2023/05/01 16:16:24;;;;;;;1.23;1.17;;;15.30;91.90;;;;;;6216446;23;20192;-67
2023/05/01 16:18:55;;;;;;;1.10;1.10;;;15.20;93.80;;;;;;6216453;23;20168;-67
2023/05/01 16:21:24;;;;;;;1.13;1.13;;;15.10;95.50;;;;;;6216559;23;20290;-66
2023/05/01 16:23:51;;;;;;;1.42;1.33;;;15.10;96.60;;;;;;6216289;23;20506;-67
2023/05/01 16:26:24;;;;;;;0.90;0.90;;;15.10;96.20;;;;;;6216751;23;20255;-67
2023/05/01 16:28:51;;;;;;;1.00;1.00;;;15.20;98.80;;;;;;6216727;23;20486;-67
2023/05/01 16:31:18;;;;;;;0.85;0.85;;;15.20;97.80;;;;;;6216831;23;20477;-67
2023/05/01 16:33:49;;;;;;;1.13;1.13;;;15.30;99.50;;;;;;6216206;23;20168;-67
2023/05/01 16:36:17;;;;;;;1.00;1.00;;;15.40;99.90;;;;;;6216400;23;20177;-67
2023/05/01 16:38:44;;;;;;;1.13;1.13;;;15.40;99.90;;;;;;6215961;23;20204;-67
2023/05/01 16:41:15;;;;;;;1.00;1.00;;;15.40;99.90;;;;;;6216178;23;20180;-67
2023/05/01 16:43:41;;;;;;;0.98;0.98;;;15.30;99.90;;;;;;6216362;23;20161;-67
2023/05/01 16:46:09;;;;;;;0.80;0.80;;;15.30;99.90;;;;;;6215754;23;20650;-67
2023/05/01 16:48:36;;;;;;;1.23;1.23;;;15.30;99.90;;;;;;6216673;23;20193;-67
2023/05/01 16:51:06;;;;;;;0.90;0.90;;;15.20;99.90;;;;;;6216341;23;20184;-67
2023/05/01 16:53:33;;;;;;;0.95;0.95;;;15.20;99.90;;;;;;6217766;23;20179;-68
2023/05/01 16:56:00;;;;;;;1.00;1.00;;;15.20;99.90;;;;;;6216627;23;20275;-66
2023/05/01 16:58:27;;;;;;;0.90;0.90;;;15.10;99.90;;;;;;6215522;23;20193;-67
2023/05/01 17:00:56;;;;;;;0.90;0.90;;;15.10;99.90;;;;;;6216388;23;20347;-67
2023/05/01 17:03:23;;;;;;;0.88;0.88;;;15.10;99.90;;;;;;6216472;23;20223;-67
2023/05/01 17:05:50;;;;;;;1.45;1.45;;;15.10;99.90;;;;;;6216026;23;20231;-66
2023/05/01 17:08:19;;;;;;;1.15;1.15;;;15.10;99.90;;;;;;6216329;23;20192;-67
2023/05/01 17:10:45;;;;;;;1.10;1.10;;;15.00;99.90;;;;;;6216796;23;20180;-67
2023/05/01 17:13:14;;;;;;;1.10;1.10;;;14.90;99.90;;;;;;6216328;23;20180;-66
2023/05/01 17:15:41;;;;;;;1.10;1.10;;;14.80;99.90;;;;;;6215610;23;20598;-66
2023/05/01 17:18:07;;;;;;;1.13;1.13;;;14.70;99.90;;;;;;6215936;23;20204;-67
2023/05/01 17:20:34;;;;;;;1.10;1.10;;;14.60;99.90;;;;;;6216318;23;20192;-66
2023/05/01 17:23:01;;;;;;;1.20;1.20;;;14.60;99.90;;;;;;6216145;23;20180;-67
2023/05/01 17:25:29;;;;;;;1.30;1.30;;;14.50;99.90;;;;;;6215843;23;20169;-66
2023/05/01 17:27:55;;;;;;;1.27;1.27;;;14.30;99.90;;;;;;6216734;23;20193;-66
2023/05/01 17:30:22;;;;;;;1.30;1.30;;;14.10;99.90;;;;;;6215872;23;20177;-66
2023/05/01 17:32:49;;;;;;;2.65;2.08;;;14.00;99.90;;;;;;6216230;23;20176;-66
2023/05/01 17:35:16;;;;;;;2.70;2.50;;;13.80;99.90;;;;;;6216883;23;20259;-67
2023/05/01 17:37:43;;;;;;;2.78;2.53;;;13.70;99.90;;;;;;6215723;23;20204;-66
2023/05/01 17:40:11;;;;;;;2.42;2.22;;;13.50;99.90;;;;;;6216078;23;20177;-66
2023/05/01 17:42:39;;;;;;;1.95;1.85;;;13.30;99.90;;;;;;6216027;23;20187;-66
2023/05/01 17:45:09;;;;;;;1.80;1.70;;;13.10;99.90;;;;;;6216326;23;20173;-66
2023/05/01 17:47:35;;;;;;;1.30;1.30;;;12.90;99.90;;;;;;6216004;23;20193;-67
2023/05/01 17:50:04;;;;;;;1.60;1.60;;;12.80;99.90;;;;;;6216176;23;20184;-67
2023/05/01 17:52:31;;;;;;;1.70;1.70;;;12.70;99.90;;;;;;6215667;23;20657;-67
2023/05/01 17:54:58;;;;;;;2.10;2.00;;;12.50;99.90;;;;;;6216151;23;20220;-66
2023/05/01 17:57:24;;;;;;;1.75;1.70;;;12.40;99.90;;;;;;6215887;23;20257;-66
2023/05/01 17:59:52;;;;;;;1.50;1.45;;;12.30;99.90;;;;;;6215889;23;20537;-66
2023/05/01 18:02:19;;;;;;;1.88;1.77;;;12.20;99.90;;;;;;6216123;23;20183;-67
2023/05/01 18:04:49;;;;;;;2.00;1.90;;;12.10;99.90;;;;;;6216411;23;20173;-67
2023/05/01 18:07:15;;;;;;;2.15;2.05;;;12.00;99.90;;;;;;6216143;23;20224;-67
2023/05/01 18:09:42;;;;;;;2.28;2.17;;;12.00;99.90;;;;;;6217005;23;20173;-67
2023/05/01 18:12:10;;;;;;;2.30;2.20;;;11.90;99.90;;;;;;6218364;23;20172;-68
2023/05/01 18:14:36;;;;;;;2.10;2.00;;;11.80;99.90;;;;;;6218134;23;20178;-68
2023/05/01 18:17:04;;;;;;;1.83;1.80;;;11.80;99.90;;;;;;6217610;23;20276;-67
2023/05/01 18:19:31;;;;;;;1.85;1.80;;;11.80;99.90;;;;;;6217795;23;20176;-66